This is the latest recevied weather packets stored in our database for station/object CT1ETE. If no packets are shown the sender has not sent any weather packets the latest 10 day(s).
| Time | Temp. | Humidity | Pressure | Rain* | Wind** | Luminosity | Snow |
|---|---|---|---|---|---|---|---|
| 1777357521 | 18.89° C | 60% | 1009.4 hPa | 0 mm | - | - | - |
| 1777352592 | 18.33° C | 62% | 1009.6 hPa | 0 mm | - | - | - |
| 1777350792 | 18.33° C | 63% | 1009.7 hPa | 0 mm | - | - | - |
| 1777348086 | 18.33° C | 63% | 1010.1 hPa | 0 mm | - | - | - |
| 1777347598 | 18.33° C | 63% | 1010.2 hPa | 0 mm | - | - | - |
| 1777344488 | 18.33° C | 62% | 1010.4 hPa | 0 mm | - | - | - |
| 1777341779 | 18.89° C | 60% | 1010.9 hPa | 0 mm | - | - | - |
| 1777336380 | 19.44° C | 56% | 1011.6 hPa | 0 mm | - | - | - |
| 1777328274 | 20° C | 55% | 1011.9 hPa | 0 mm | - | - | - |
| 1777327373 | 20.56° C | 54% | 1012 hPa | 0 mm | - | - | - |
| 1777326473 | 20.56° C | 53% | 1011.9 hPa | 0 mm | - | - | - |
| 1777324670 | 21.11° C | 51% | 1012 hPa | 0 mm | - | - | - |
| 1777323306 | 21.67° C | 50% | 1011.9 hPa | 0 mm | - | - | - |
| 1777312963 | 25.56° C | 42% | 1012.3 hPa | 0 mm | - | - | - |
| 1777312484 | 26.67° C | 41% | 1012.1 hPa | 0 mm | - | - | - |
| 1777310262 | 26.11° C | 42% | 1011.9 hPa | 0 mm | - | - | - |
| 1777306657 | 28.89° C | 41% | 1012.1 hPa | 0 mm | - | - | - |
| 1777303951 | 28.89° C | 38% | 1012 hPa | 0 mm | - | - | - |
| 1777303048 | 28.89° C | 44% | 1012.1 hPa | 0 mm | - | - | - |
| 1777296262 | 27.78° C | 40% | 1013.4 hPa | 0 mm | - | - | - |
| 1777294944 | 27.78° C | 41% | 1013.5 hPa | 0 mm | - | - | - |
| 1777294459 | 27.78° C | 44% | 1013.8 hPa | 0 mm | - | - | - |
| 1777291342 | 27.22° C | 44% | 1014.3 hPa | 0 mm | - | - | - |
| 1777285939 | 26.11° C | 49% | 1015 hPa | 0 mm | - | - | - |
| 1777280537 | 23.33° C | 56% | 1015.4 hPa | 0 mm | - | - | - |
* Rain latest hour (hover to see other rain measurements)
** Current wind speed in m/s (hover to see current wind gust speed)